עמוד ראשי
METAR-TAF:

METAR-TAF

שדות תעופה :

פונטה ארנס, צ'ילה

קו רוחב: 53-00S, קו אורך: 070-51W, גובה: 37מטר

תצפית מזג אוויר נוכחית

הדו"ח נערך לפני 1 שעות ו 0דקות, בשעה 01:00 UTC
רוח 7קשר מכיוון מערב
טמפרטורת -9 צלסיוס
לחות 92%
לחץ 1025 hPa
ראות 10 קילומטר או יותר
ללא עננים שבסיסם נמוך מ 5000 רגל או קומולונימבוס

METAR: SCCI 200100Z 26007KT CAVOK M09/M10 Q1025 NOSIG

זמן: 22:00 (02:00 UTC)

תחזית

הדו"ח נערך לפני 3 שעות ו 10דקות, בשעה 22:50 UTC
תחזית בתוקף מ 20 ב 00 UTC עד 21 ב 00 UTC
רוח 6קשר מכיוון דרום-מערב
ראות 10 קילומטר או יותר
עננים פזורים בגובה 3000רגל
יעשה מ
20 ב 02 UTC עד 20 ב 04 UTC
עננים בינוניים בגובה 2000רגל
הסתברות 30% :
זמנית מ -
20 ב 06 UTC עד 20 ב 14 UTC
רוח 2קשר עם כיוונים משתנים
ראות: 5000מטר
עננים בינוניים בגובה 500רגל
ממטרי שלג קלים, אד
יעשה מ
20 ב 16 UTC עד 20 ב 18 UTC
רוח 5קשר מכיוון מערב/צפון-מערב

TAF: SCCI 192250Z 2000/2100 23006KT 9999 SCT030 TNM10/2006Z TXM00/2018Z BECMG 2002/2004 BKN020 PROB30 TEMPO 2006/2014 VRB02KT 5000 -SHSN BR BKN005 BECMG 2016/2018 29005KT

תצפיות ותחזיות מזג אוויר לגבי יותר מ- 4,000 שדות תעופה ברחבי העולם. דוחות METAR ו- TAF.

התחנות הזמינות מסומנות בנקודות צהובות ואדומות על גבי המפה.

העבר את העכבר לנקודה הצבעונית על מנת לראות את שם התחנה.

לאחר מכן, לחץ כדי לראות את תוכן ואת תחזיות מזג האוויר.

כדי לשנות את המפה: לחץ על הכפתורים הירוקים עם הפלוס השחור כדי להתקרב; על הכפתור הירוק עם המקף כדי להתרחק; או בחיצים הירוקים למפות סמוכות.


METAR-TAF: